sensor_id;sensor_type;location;lat;lon;timestamp;P1;durP1;ratioP1;P2;durP2;ratioP2
21848;SDS011;11089;49.852;19.700;2022-12-07T00:02:07;11.95;;;5.63;;
21848;SDS011;11089;49.852;19.700;2022-12-07T00:05:09;12.68;;;6.32;;
21848;SDS011;11089;49.852;19.700;2022-12-07T00:08:09;10.57;;;5.28;;
21848;SDS011;11089;49.852;19.700;2022-12-07T00:11:11;10.07;;;4.88;;
21848;SDS011;11089;49.852;19.700;2022-12-07T00:14:15;11.65;;;4.95;;
21848;SDS011;11089;49.852;19.700;2022-12-07T00:17:16;12.15;;;5.22;;
21848;SDS011;11089;49.852;19.700;2022-12-07T00:20:17;9.82;;;5.03;;
21848;SDS011;11089;49.852;19.700;2022-12-07T00:23:18;8.88;;;4.65;;
21848;SDS011;11089;49.852;19.700;2022-12-07T00:26:20;10.60;;;4.88;;
21848;SDS011;11089;49.852;19.700;2022-12-07T00:29:22;10.80;;;5.03;;
21848;SDS011;11089;49.852;19.700;2022-12-07T00:32:23;9.65;;;5.07;;
21848;SDS011;11089;49.852;19.700;2022-12-07T00:35:24;9.90;;;4.70;;
21848;SDS011;11089;49.852;19.700;2022-12-07T00:38:27;8.40;;;4.78;;
21848;SDS011;11089;49.852;19.700;2022-12-07T00:41:30;11.63;;;5.40;;
21848;SDS011;11089;49.852;19.700;2022-12-07T00:44:31;7.10;;;3.22;;
21848;SDS011;11089;49.852;19.700;2022-12-07T00:47:31;5.90;;;2.70;;
21848;SDS011;11089;49.852;19.700;2022-12-07T00:50:32;3.28;;;2.45;;
21848;SDS011;11089;49.852;19.700;2022-12-07T00:53:34;4.35;;;2.33;;
21848;SDS011;11089;49.852;19.700;2022-12-07T00:56:35;3.38;;;2.30;;
21848;SDS011;11089;49.852;19.700;2022-12-07T00:59:36;6.28;;;2.40;;
21848;SDS011;11089;49.852;19.700;2022-12-07T01:02:37;5.32;;;2.70;;
21848;SDS011;11089;49.852;19.700;2022-12-07T01:05:38;4.22;;;2.72;;
21848;SDS011;11089;49.852;19.700;2022-12-07T01:08:39;4.60;;;2.60;;
21848;SDS011;11089;49.852;19.700;2022-12-07T01:11:40;6.00;;;2.83;;
21848;SDS011;11089;49.852;19.700;2022-12-07T01:14:42;5.60;;;2.63;;
21848;SDS011;11089;49.852;19.700;2022-12-07T01:17:43;4.45;;;2.17;;
21848;SDS011;11089;49.852;19.700;2022-12-07T01:20:44;3.97;;;2.30;;
21848;SDS011;11089;49.852;19.700;2022-12-07T01:23:45;3.90;;;2.60;;
21848;SDS011;11089;49.852;19.700;2022-12-07T01:26:48;3.78;;;2.70;;
21848;SDS011;11089;49.852;19.700;2022-12-07T01:29:50;3.78;;;2.40;;
21848;SDS011;11089;49.852;19.700;2022-12-07T01:32:51;2.97;;;2.17;;
21848;SDS011;11089;49.852;19.700;2022-12-07T01:35:52;3.83;;;2.42;;
21848;SDS011;11089;49.852;19.700;2022-12-07T01:38:57;3.53;;;2.05;;
21848;SDS011;11089;49.852;19.700;2022-12-07T01:41:59;4.20;;;2.05;;
21848;SDS011;11089;49.852;19.700;2022-12-07T01:48:37;3.75;;;2.10;;
21848;SDS011;11089;49.852;19.700;2022-12-07T01:51:40;3.22;;;2.17;;
21848;SDS011;11089;49.852;19.700;2022-12-07T01:54:43;3.85;;;1.98;;
21848;SDS011;11089;49.852;19.700;2022-12-07T01:57:47;2.83;;;1.90;;
21848;SDS011;11089;49.852;19.700;2022-12-07T02:00:50;3.70;;;2.33;;
21848;SDS011;11089;49.852;19.700;2022-12-07T02:03:51;4.18;;;2.38;;
21848;SDS011;11089;49.852;19.700;2022-12-07T02:06:53;3.17;;;1.90;;
21848;SDS011;11089;49.852;19.700;2022-12-07T02:09:54;3.38;;;2.60;;
21848;SDS011;11089;49.852;19.700;2022-12-07T02:12:56;3.88;;;2.03;;
21848;SDS011;11089;49.852;19.700;2022-12-07T02:16:19;4.03;;;2.20;;
21848;SDS011;11089;49.852;19.700;2022-12-07T02:23:38;5.38;;;2.50;;
21848;SDS011;11089;49.852;19.700;2022-12-07T02:26:44;5.72;;;2.92;;
21848;SDS011;11089;49.852;19.700;2022-12-07T02:29:58;5.47;;;2.30;;
21848;SDS011;11089;49.852;19.700;2022-12-07T02:33:08;3.75;;;2.30;;
21848;SDS011;11089;49.852;19.700;2022-12-07T02:36:17;3.50;;;2.42;;
21848;SDS011;11089;49.852;19.700;2022-12-07T02:39:48;3.05;;;2.30;;
21848;SDS011;11089;49.852;19.700;2022-12-07T02:42:54;3.03;;;2.15;;
21848;SDS011;11089;49.852;19.700;2022-12-07T02:46:10;3.45;;;2.45;;
21848;SDS011;11089;49.852;19.700;2022-12-07T02:49:17;4.28;;;2.50;;
21848;SDS011;11089;49.852;19.700;2022-12-07T02:52:19;3.13;;;2.20;;
21848;SDS011;11089;49.852;19.700;2022-12-07T02:55:23;4.30;;;2.40;;
21848;SDS011;11089;49.852;19.700;2022-12-07T03:11:55;4.22;;;2.88;;
21848;SDS011;11089;49.852;19.700;2022-12-07T03:15:05;3.72;;;2.63;;
21848;SDS011;11089;49.852;19.700;2022-12-07T03:18:22;3.67;;;2.90;;
21848;SDS011;11089;49.852;19.700;2022-12-07T03:21:32;4.85;;;2.78;;
21848;SDS011;11089;49.852;19.700;2022-12-07T03:27:58;3.90;;;2.80;;
21848;SDS011;11089;49.852;19.700;2022-12-07T03:31:08;4.50;;;2.97;;
21848;SDS011;11089;49.852;19.700;2022-12-07T03:34:25;5.53;;;3.50;;
21848;SDS011;11089;49.852;19.700;2022-12-07T03:37:34;4.80;;;3.45;;
21848;SDS011;11089;49.852;19.700;2022-12-07T03:40:43;5.10;;;3.08;;
21848;SDS011;11089;49.852;19.700;2022-12-07T03:43:51;6.50;;;3.03;;
21848;SDS011;11089;49.852;19.700;2022-12-07T03:50:18;4.60;;;3.40;;
21848;SDS011;11089;49.852;19.700;2022-12-07T03:53:36;4.38;;;3.15;;
21848;SDS011;11089;49.852;19.700;2022-12-07T03:56:44;4.75;;;3.28;;
21848;SDS011;11089;49.852;19.700;2022-12-07T03:59:46;5.90;;;3.95;;
21848;SDS011;11089;49.852;19.700;2022-12-07T04:02:50;5.28;;;3.60;;
21848;SDS011;11089;49.852;19.700;2022-12-07T04:05:52;6.95;;;4.40;;
21848;SDS011;11089;49.852;19.700;2022-12-07T04:08:54;6.05;;;4.18;;
21848;SDS011;11089;49.852;19.700;2022-12-07T04:11:55;5.75;;;3.50;;
21848;SDS011;11089;49.852;19.700;2022-12-07T04:14:56;5.72;;;3.45;;
21848;SDS011;11089;49.852;19.700;2022-12-07T04:17:56;6.32;;;3.70;;
21848;SDS011;11089;49.852;19.700;2022-12-07T04:20:57;4.97;;;3.17;;
21848;SDS011;11089;49.852;19.700;2022-12-07T04:23:58;5.20;;;3.10;;
21848;SDS011;11089;49.852;19.700;2022-12-07T04:26:59;4.72;;;3.40;;
21848;SDS011;11089;49.852;19.700;2022-12-07T04:30:00;4.60;;;3.40;;
21848;SDS011;11089;49.852;19.700;2022-12-07T04:33:01;4.72;;;3.38;;
21848;SDS011;11089;49.852;19.700;2022-12-07T04:36:02;6.93;;;3.97;;
21848;SDS011;11089;49.852;19.700;2022-12-07T04:39:04;5.68;;;3.40;;
21848;SDS011;11089;49.852;19.700;2022-12-07T04:42:06;7.13;;;3.50;;
21848;SDS011;11089;49.852;19.700;2022-12-07T04:45:08;5.65;;;3.08;;
21848;SDS011;11089;49.852;19.700;2022-12-07T04:48:09;5.10;;;3.30;;
21848;SDS011;11089;49.852;19.700;2022-12-07T04:51:10;5.80;;;3.35;;
21848;SDS011;11089;49.852;19.700;2022-12-07T04:54:11;6.25;;;3.97;;
21848;SDS011;11089;49.852;19.700;2022-12-07T04:57:13;9.10;;;3.90;;
21848;SDS011;11089;49.852;19.700;2022-12-07T05:00:14;6.47;;;3.83;;
21848;SDS011;11089;49.852;19.700;2022-12-07T05:03:15;7.85;;;4.47;;
21848;SDS011;11089;49.852;19.700;2022-12-07T05:06:16;7.18;;;4.03;;
21848;SDS011;11089;49.852;19.700;2022-12-07T05:09:17;7.05;;;3.97;;
21848;SDS011;11089;49.852;19.700;2022-12-07T05:12:18;6.13;;;3.60;;
21848;SDS011;11089;49.852;19.700;2022-12-07T05:15:19;6.60;;;3.67;;
21848;SDS011;11089;49.852;19.700;2022-12-07T05:18:20;9.25;;;4.40;;
21848;SDS011;11089;49.852;19.700;2022-12-07T05:21:21;7.38;;;4.03;;
21848;SDS011;11089;49.852;19.700;2022-12-07T05:24:22;9.27;;;5.22;;
21848;SDS011;11089;49.852;19.700;2022-12-07T05:27:23;9.68;;;5.30;;
21848;SDS011;11089;49.852;19.700;2022-12-07T05:30:24;12.98;;;6.65;;
21848;SDS011;11089;49.852;19.700;2022-12-07T05:33:26;13.00;;;7.00;;
21848;SDS011;11089;49.852;19.700;2022-12-07T05:36:27;17.98;;;8.07;;
21848;SDS011;11089;49.852;19.700;2022-12-07T05:39:28;12.63;;;6.70;;
21848;SDS011;11089;49.852;19.700;2022-12-07T05:42:29;16.33;;;7.30;;
21848;SDS011;11089;49.852;19.700;2022-12-07T05:45:30;24.30;;;10.35;;
21848;SDS011;11089;49.852;19.700;2022-12-07T05:48:31;38.63;;;13.38;;
21848;SDS011;11089;49.852;19.700;2022-12-07T05:51:32;37.67;;;11.23;;
21848;SDS011;11089;49.852;19.700;2022-12-07T05:54:33;16.05;;;7.45;;
21848;SDS011;11089;49.852;19.700;2022-12-07T05:57:34;12.40;;;6.05;;
21848;SDS011;11089;49.852;19.700;2022-12-07T06:00:35;10.35;;;5.82;;
21848;SDS011;11089;49.852;19.700;2022-12-07T06:03:36;12.13;;;6.05;;
21848;SDS011;11089;49.852;19.700;2022-12-07T06:06:37;11.30;;;5.75;;
21848;SDS011;11089;49.852;19.700;2022-12-07T06:09:38;11.52;;;5.63;;
21848;SDS011;11089;49.852;19.700;2022-12-07T06:12:39;11.23;;;6.05;;
21848;SDS011;11089;49.852;19.700;2022-12-07T06:15:42;11.65;;;6.03;;
21848;SDS011;11089;49.852;19.700;2022-12-07T06:18:44;13.38;;;6.70;;
21848;SDS011;11089;49.852;19.700;2022-12-07T06:21:45;14.63;;;6.45;;
21848;SDS011;11089;49.852;19.700;2022-12-07T06:24:46;13.00;;;5.95;;
21848;SDS011;11089;49.852;19.700;2022-12-07T06:27:47;11.52;;;5.93;;
21848;SDS011;11089;49.852;19.700;2022-12-07T06:30:56;12.57;;;6.20;;
21848;SDS011;11089;49.852;19.700;2022-12-07T06:34:01;13.52;;;7.38;;
21848;SDS011;11089;49.852;19.700;2022-12-07T06:37:04;20.13;;;9.60;;
21848;SDS011;11089;49.852;19.700;2022-12-07T06:40:05;17.63;;;8.73;;
21848;SDS011;11089;49.852;19.700;2022-12-07T06:43:06;14.52;;;6.82;;
21848;SDS011;11089;49.852;19.700;2022-12-07T06:46:08;15.70;;;8.05;;
21848;SDS011;11089;49.852;19.700;2022-12-07T06:49:09;15.20;;;7.57;;
21848;SDS011;11089;49.852;19.700;2022-12-07T06:52:09;24.80;;;10.55;;
21848;SDS011;11089;49.852;19.700;2022-12-07T06:55:10;64.65;;;23.42;;
21848;SDS011;11089;49.852;19.700;2022-12-07T06:58:11;46.13;;;19.92;;
21848;SDS011;11089;49.852;19.700;2022-12-07T07:01:13;28.45;;;15.02;;
21848;SDS011;11089;49.852;19.700;2022-12-07T07:04:16;18.52;;;11.93;;
21848;SDS011;11089;49.852;19.700;2022-12-07T07:07:17;17.40;;;9.98;;
21848;SDS011;11089;49.852;19.700;2022-12-07T07:10:18;18.77;;;9.85;;
21848;SDS011;11089;49.852;19.700;2022-12-07T07:13:19;28.85;;;13.98;;
21848;SDS011;11089;49.852;19.700;2022-12-07T07:16:20;33.55;;;14.10;;
21848;SDS011;11089;49.852;19.700;2022-12-07T07:19:21;32.50;;;14.13;;
21848;SDS011;11089;49.852;19.700;2022-12-07T07:22:22;15.85;;;7.85;;
21848;SDS011;11089;49.852;19.700;2022-12-07T07:25:23;10.77;;;6.38;;
21848;SDS011;11089;49.852;19.700;2022-12-07T07:28:24;12.50;;;6.53;;
21848;SDS011;11089;49.852;19.700;2022-12-07T07:31:25;16.52;;;7.53;;
21848;SDS011;11089;49.852;19.700;2022-12-07T07:34:25;17.42;;;9.07;;
21848;SDS011;11089;49.852;19.700;2022-12-07T07:37:26;13.13;;;6.28;;
21848;SDS011;11089;49.852;19.700;2022-12-07T07:40:28;13.60;;;6.50;;
21848;SDS011;11089;49.852;19.700;2022-12-07T07:43:29;36.72;;;15.55;;
21848;SDS011;11089;49.852;19.700;2022-12-07T07:46:30;30.73;;;14.70;;
21848;SDS011;11089;49.852;19.700;2022-12-07T07:49:33;35.25;;;14.55;;
21848;SDS011;11089;49.852;19.700;2022-12-07T07:52:34;19.13;;;10.55;;
21848;SDS011;11089;49.852;19.700;2022-12-07T07:55:35;23.60;;;12.45;;
21848;SDS011;11089;49.852;19.700;2022-12-07T07:58:36;20.67;;;10.75;;
21848;SDS011;11089;49.852;19.700;2022-12-07T08:01:39;23.13;;;11.02;;
21848;SDS011;11089;49.852;19.700;2022-12-07T08:04:40;15.63;;;8.30;;
21848;SDS011;11089;49.852;19.700;2022-12-07T08:07:41;21.40;;;9.02;;
21848;SDS011;11089;49.852;19.700;2022-12-07T08:10:42;32.00;;;12.75;;
21848;SDS011;11089;49.852;19.700;2022-12-07T08:13:44;20.95;;;11.23;;
21848;SDS011;11089;49.852;19.700;2022-12-07T08:16:46;20.60;;;10.15;;
21848;SDS011;11089;49.852;19.700;2022-12-07T08:19:47;25.88;;;12.75;;
21848;SDS011;11089;49.852;19.700;2022-12-07T08:22:48;46.35;;;17.38;;
21848;SDS011;11089;49.852;19.700;2022-12-07T08:25:49;168.95;;;47.03;;
21848;SDS011;11089;49.852;19.700;2022-12-07T08:28:52;112.43;;;32.78;;
21848;SDS011;11089;49.852;19.700;2022-12-07T08:31:53;82.95;;;24.40;;
21848;SDS011;11089;49.852;19.700;2022-12-07T08:34:54;55.38;;;17.60;;
21848;SDS011;11089;49.852;19.700;2022-12-07T08:37:55;31.67;;;13.38;;
21848;SDS011;11089;49.852;19.700;2022-12-07T08:40:59;46.65;;;14.35;;
21848;SDS011;11089;49.852;19.700;2022-12-07T08:44:00;35.88;;;12.85;;
21848;SDS011;11089;49.852;19.700;2022-12-07T08:47:02;46.22;;;15.60;;
21848;SDS011;11089;49.852;19.700;2022-12-07T08:50:05;28.33;;;10.18;;
21848;SDS011;11089;49.852;19.700;2022-12-07T08:53:09;27.08;;;9.68;;
21848;SDS011;11089;49.852;19.700;2022-12-07T08:56:10;34.88;;;11.90;;
21848;SDS011;11089;49.852;19.700;2022-12-07T08:59:12;25.70;;;10.18;;
21848;SDS011;11089;49.852;19.700;2022-12-07T09:02:15;22.73;;;9.02;;
21848;SDS011;11089;49.852;19.700;2022-12-07T09:05:16;18.35;;;9.30;;
21848;SDS011;11089;49.852;19.700;2022-12-07T09:08:17;30.98;;;12.80;;
21848;SDS011;11089;49.852;19.700;2022-12-07T09:11:18;34.30;;;11.82;;
21848;SDS011;11089;49.852;19.700;2022-12-07T09:14:19;27.65;;;12.60;;
21848;SDS011;11089;49.852;19.700;2022-12-07T09:17:20;24.42;;;12.40;;
21848;SDS011;11089;49.852;19.700;2022-12-07T09:20:21;18.90;;;10.60;;
21848;SDS011;11089;49.852;19.700;2022-12-07T09:23:22;17.45;;;10.10;;
21848;SDS011;11089;49.852;19.700;2022-12-07T09:26:23;19.13;;;10.25;;
21848;SDS011;11089;49.852;19.700;2022-12-07T09:29:24;18.80;;;9.63;;
21848;SDS011;11089;49.852;19.700;2022-12-07T09:32:25;19.15;;;9.23;;
21848;SDS011;11089;49.852;19.700;2022-12-07T09:35:26;30.02;;;12.20;;
21848;SDS011;11089;49.852;19.700;2022-12-07T09:38:27;80.55;;;24.90;;
21848;SDS011;11089;49.852;19.700;2022-12-07T09:41:31;26.85;;;10.20;;
21848;SDS011;11089;49.852;19.700;2022-12-07T09:44:33;43.47;;;12.48;;
21848;SDS011;11089;49.852;19.700;2022-12-07T09:47:35;76.43;;;22.48;;
21848;SDS011;11089;49.852;19.700;2022-12-07T09:50:36;37.88;;;12.57;;
21848;SDS011;11089;49.852;19.700;2022-12-07T09:53:37;37.95;;;12.52;;
21848;SDS011;11089;49.852;19.700;2022-12-07T09:56:38;37.08;;;13.63;;
21848;SDS011;11089;49.852;19.700;2022-12-07T09:59:40;32.25;;;11.90;;
21848;SDS011;11089;49.852;19.700;2022-12-07T10:02:42;34.50;;;12.55;;
21848;SDS011;11089;49.852;19.700;2022-12-07T10:05:46;26.00;;;10.15;;
21848;SDS011;11089;49.852;19.700;2022-12-07T10:08:49;33.72;;;12.52;;
21848;SDS011;11089;49.852;19.700;2022-12-07T10:12:01;34.13;;;12.68;;
21848;SDS011;11089;49.852;19.700;2022-12-07T10:15:09;18.10;;;8.55;;
21848;SDS011;11089;49.852;19.700;2022-12-07T10:21:35;10.95;;;5.63;;
21848;SDS011;11089;49.852;19.700;2022-12-07T10:24:37;81.53;;;26.58;;
21848;SDS011;11089;49.852;19.700;2022-12-07T10:27:41;23.60;;;9.13;;
21848;SDS011;11089;49.852;19.700;2022-12-07T10:30:56;15.95;;;7.30;;
21848;SDS011;11089;49.852;19.700;2022-12-07T10:34:23;24.33;;;9.50;;
21848;SDS011;11089;49.852;19.700;2022-12-07T10:37:27;33.70;;;12.35;;
21848;SDS011;11089;49.852;19.700;2022-12-07T10:43:31;21.13;;;11.15;;
21848;SDS011;11089;49.852;19.700;2022-12-07T11:03:35;29.33;;;11.13;;
21848;SDS011;11089;49.852;19.700;2022-12-07T11:13:24;37.45;;;9.95;;
21848;SDS011;11089;49.852;19.700;2022-12-07T11:33:13;27.67;;;10.95;;
21848;SDS011;11089;49.852;19.700;2022-12-07T11:36:37;53.30;;;13.38;;
21848;SDS011;11089;49.852;19.700;2022-12-07T11:42:56;41.80;;;10.93;;
21848;SDS011;11089;49.852;19.700;2022-12-07T11:46:03;22.73;;;7.82;;
21848;SDS011;11089;49.852;19.700;2022-12-07T11:52:45;11.77;;;5.88;;
21848;SDS011;11089;49.852;19.700;2022-12-07T12:02:14;11.05;;;6.18;;
21848;SDS011;11089;49.852;19.700;2022-12-07T12:05:22;12.32;;;5.68;;
21848;SDS011;11089;49.852;19.700;2022-12-07T12:08:29;12.43;;;6.68;;
21848;SDS011;11089;49.852;19.700;2022-12-07T12:11:48;10.55;;;6.22;;
21848;SDS011;11089;49.852;19.700;2022-12-07T12:21:22;11.88;;;5.20;;
21848;SDS011;11089;49.852;19.700;2022-12-07T12:24:28;8.73;;;4.85;;
21848;SDS011;11089;49.852;19.700;2022-12-07T12:27:38;8.98;;;5.28;;
21848;SDS011;11089;49.852;19.700;2022-12-07T12:30:40;9.85;;;5.07;;
21848;SDS011;11089;49.852;19.700;2022-12-07T12:33:45;14.77;;;6.90;;
21848;SDS011;11089;49.852;19.700;2022-12-07T12:36:51;21.13;;;7.95;;
21848;SDS011;11089;49.852;19.700;2022-12-07T12:50:10;13.15;;;6.88;;
21848;SDS011;11089;49.852;19.700;2022-12-07T12:53:19;50.10;;;18.88;;
21848;SDS011;11089;49.852;19.700;2022-12-07T12:56:29;41.55;;;18.67;;
21848;SDS011;11089;49.852;19.700;2022-12-07T13:02:55;16.13;;;8.48;;
21848;SDS011;11089;49.852;19.700;2022-12-07T13:09:31;13.02;;;5.60;;
21848;SDS011;11089;49.852;19.700;2022-12-07T13:12:36;13.00;;;6.60;;
21848;SDS011;11089;49.852;19.700;2022-12-07T13:15:38;18.60;;;8.38;;
21848;SDS011;11089;49.852;19.700;2022-12-07T13:18:44;8.93;;;5.13;;
21848;SDS011;11089;49.852;19.700;2022-12-07T13:21:45;13.38;;;5.70;;
21848;SDS011;11089;49.852;19.700;2022-12-07T13:24:46;12.20;;;5.35;;
21848;SDS011;11089;49.852;19.700;2022-12-07T13:27:48;11.05;;;5.07;;
21848;SDS011;11089;49.852;19.700;2022-12-07T13:34:28;12.55;;;5.63;;
21848;SDS011;11089;49.852;19.700;2022-12-07T13:37:37;12.88;;;5.97;;
21848;SDS011;11089;49.852;19.700;2022-12-07T13:40:38;8.32;;;4.72;;
21848;SDS011;11089;49.852;19.700;2022-12-07T13:43:45;12.30;;;5.72;;
21848;SDS011;11089;49.852;19.700;2022-12-07T13:53:27;8.80;;;4.85;;
21848;SDS011;11089;49.852;19.700;2022-12-07T13:56:33;12.93;;;6.25;;
21848;SDS011;11089;49.852;19.700;2022-12-07T13:59:36;9.95;;;5.32;;
21848;SDS011;11089;49.852;19.700;2022-12-07T14:02:53;11.73;;;6.10;;
21848;SDS011;11089;49.852;19.700;2022-12-07T14:09:22;14.13;;;6.65;;
21848;SDS011;11089;49.852;19.700;2022-12-07T14:12:25;13.90;;;7.45;;
21848;SDS011;11089;49.852;19.700;2022-12-07T14:15:28;14.63;;;6.97;;
21848;SDS011;11089;49.852;19.700;2022-12-07T14:18:37;16.10;;;8.07;;
21848;SDS011;11089;49.852;19.700;2022-12-07T14:21:40;19.08;;;8.70;;
21848;SDS011;11089;49.852;19.700;2022-12-07T14:24:41;21.95;;;9.63;;
21848;SDS011;11089;49.852;19.700;2022-12-07T14:27:50;21.52;;;9.82;;
21848;SDS011;11089;49.852;19.700;2022-12-07T14:30:56;21.48;;;9.52;;
21848;SDS011;11089;49.852;19.700;2022-12-07T14:34:00;19.40;;;8.82;;
21848;SDS011;11089;49.852;19.700;2022-12-07T14:37:01;21.08;;;10.32;;
21848;SDS011;11089;49.852;19.700;2022-12-07T14:40:02;17.58;;;8.93;;
21848;SDS011;11089;49.852;19.700;2022-12-07T14:43:04;21.38;;;9.68;;
21848;SDS011;11089;49.852;19.700;2022-12-07T14:46:09;25.70;;;10.88;;
21848;SDS011;11089;49.852;19.700;2022-12-07T14:49:10;26.42;;;11.07;;
21848;SDS011;11089;49.852;19.700;2022-12-07T14:52:18;18.25;;;9.52;;
21848;SDS011;11089;49.852;19.700;2022-12-07T14:55:23;20.42;;;9.32;;
21848;SDS011;11089;49.852;19.700;2022-12-07T14:58:26;18.92;;;9.10;;
21848;SDS011;11089;49.852;19.700;2022-12-07T15:01:27;30.65;;;13.98;;
21848;SDS011;11089;49.852;19.700;2022-12-07T15:04:28;18.65;;;9.18;;
21848;SDS011;11089;49.852;19.700;2022-12-07T15:07:29;20.48;;;9.38;;
21848;SDS011;11089;49.852;19.700;2022-12-07T15:10:32;23.02;;;11.75;;
21848;SDS011;11089;49.852;19.700;2022-12-07T15:13:34;24.40;;;11.38;;
21848;SDS011;11089;49.852;19.700;2022-12-07T15:16:48;23.40;;;9.90;;
21848;SDS011;11089;49.852;19.700;2022-12-07T15:19:49;21.60;;;10.93;;
21848;SDS011;11089;49.852;19.700;2022-12-07T15:22:50;18.92;;;8.43;;
21848;SDS011;11089;49.852;19.700;2022-12-07T15:25:51;21.75;;;10.63;;
21848;SDS011;11089;49.852;19.700;2022-12-07T15:28:53;17.60;;;8.48;;
21848;SDS011;11089;49.852;19.700;2022-12-07T15:31:54;27.88;;;12.30;;
21848;SDS011;11089;49.852;19.700;2022-12-07T15:34:55;21.80;;;10.73;;
21848;SDS011;11089;49.852;19.700;2022-12-07T15:37:56;21.52;;;10.65;;
21848;SDS011;11089;49.852;19.700;2022-12-07T15:40:57;26.00;;;11.77;;
21848;SDS011;11089;49.852;19.700;2022-12-07T15:43:58;25.88;;;11.35;;
21848;SDS011;11089;49.852;19.700;2022-12-07T15:47:13;23.60;;;11.60;;
21848;SDS011;11089;49.852;19.700;2022-12-07T15:50:15;24.20;;;10.60;;
21848;SDS011;11089;49.852;19.700;2022-12-07T15:53:16;18.05;;;8.90;;
21848;SDS011;11089;49.852;19.700;2022-12-07T15:56:17;18.30;;;8.98;;
21848;SDS011;11089;49.852;19.700;2022-12-07T15:59:19;20.38;;;9.20;;
21848;SDS011;11089;49.852;19.700;2022-12-07T16:02:20;27.65;;;13.07;;
21848;SDS011;11089;49.852;19.700;2022-12-07T16:05:22;17.50;;;8.30;;
21848;SDS011;11089;49.852;19.700;2022-12-07T16:08:23;18.23;;;9.05;;
21848;SDS011;11089;49.852;19.700;2022-12-07T16:11:24;17.90;;;8.15;;
21848;SDS011;11089;49.852;19.700;2022-12-07T16:14:25;19.63;;;9.18;;
21848;SDS011;11089;49.852;19.700;2022-12-07T16:17:26;19.33;;;9.00;;
21848;SDS011;11089;49.852;19.700;2022-12-07T16:20:27;21.27;;;10.07;;
21848;SDS011;11089;49.852;19.700;2022-12-07T16:23:28;20.88;;;9.43;;
21848;SDS011;11089;49.852;19.700;2022-12-07T16:26:29;22.65;;;10.10;;
21848;SDS011;11089;49.852;19.700;2022-12-07T16:29:30;21.55;;;10.05;;
21848;SDS011;11089;49.852;19.700;2022-12-07T16:32:31;20.95;;;9.95;;
21848;SDS011;11089;49.852;19.700;2022-12-07T16:35:32;21.55;;;9.93;;
21848;SDS011;11089;49.852;19.700;2022-12-07T16:38:33;20.42;;;9.63;;
21848;SDS011;11089;49.852;19.700;2022-12-07T16:41:35;20.00;;;9.98;;
21848;SDS011;11089;49.852;19.700;2022-12-07T16:44:36;23.27;;;11.10;;
21848;SDS011;11089;49.852;19.700;2022-12-07T16:47:37;24.05;;;10.30;;
21848;SDS011;11089;49.852;19.700;2022-12-07T16:50:39;18.17;;;8.77;;
21848;SDS011;11089;49.852;19.700;2022-12-07T16:53:41;21.73;;;9.25;;
21848;SDS011;11089;49.852;19.700;2022-12-07T16:56:42;20.08;;;9.82;;
21848;SDS011;11089;49.852;19.700;2022-12-07T16:59:44;18.98;;;8.90;;
21848;SDS011;11089;49.852;19.700;2022-12-07T17:02:45;22.48;;;10.38;;
21848;SDS011;11089;49.852;19.700;2022-12-07T17:05:46;18.35;;;9.07;;
21848;SDS011;11089;49.852;19.700;2022-12-07T17:08:49;20.38;;;9.38;;
21848;SDS011;11089;49.852;19.700;2022-12-07T17:11:51;17.38;;;8.57;;
21848;SDS011;11089;49.852;19.700;2022-12-07T17:14:52;17.48;;;9.23;;
21848;SDS011;11089;49.852;19.700;2022-12-07T17:18:07;16.75;;;8.65;;
21848;SDS011;11089;49.852;19.700;2022-12-07T17:21:08;18.65;;;9.55;;
21848;SDS011;11089;49.852;19.700;2022-12-07T17:24:10;21.48;;;10.10;;
21848;SDS011;11089;49.852;19.700;2022-12-07T17:27:14;17.60;;;9.43;;
21848;SDS011;11089;49.852;19.700;2022-12-07T17:30:15;20.35;;;9.80;;
21848;SDS011;11089;49.852;19.700;2022-12-07T17:33:16;20.95;;;10.40;;
21848;SDS011;11089;49.852;19.700;2022-12-07T17:36:21;20.00;;;9.30;;
21848;SDS011;11089;49.852;19.700;2022-12-07T17:39:24;23.98;;;11.18;;
21848;SDS011;11089;49.852;19.700;2022-12-07T17:42:25;23.98;;;11.18;;
21848;SDS011;11089;49.852;19.700;2022-12-07T17:45:40;28.83;;;12.45;;
21848;SDS011;11089;49.852;19.700;2022-12-07T17:48:41;26.13;;;12.23;;
21848;SDS011;11089;49.852;19.700;2022-12-07T17:51:42;28.45;;;12.93;;
21848;SDS011;11089;49.852;19.700;2022-12-07T17:54:57;31.48;;;12.82;;
21848;SDS011;11089;49.852;19.700;2022-12-07T17:57:58;32.58;;;14.07;;
21848;SDS011;11089;49.852;19.700;2022-12-07T18:00:59;26.45;;;12.70;;
21848;SDS011;11089;49.852;19.700;2022-12-07T18:04:00;29.40;;;12.10;;
21848;SDS011;11089;49.852;19.700;2022-12-07T18:07:01;28.65;;;12.88;;
21848;SDS011;11089;49.852;19.700;2022-12-07T18:10:06;33.85;;;14.32;;
21848;SDS011;11089;49.852;19.700;2022-12-07T18:13:08;27.13;;;13.10;;
21848;SDS011;11089;49.852;19.700;2022-12-07T18:16:24;28.50;;;11.77;;
21848;SDS011;11089;49.852;19.700;2022-12-07T18:19:26;37.65;;;14.48;;
21848;SDS011;11089;49.852;19.700;2022-12-07T18:22:27;29.58;;;12.75;;
21848;SDS011;11089;49.852;19.700;2022-12-07T18:25:28;27.20;;;12.40;;
21848;SDS011;11089;49.852;19.700;2022-12-07T18:28:29;27.52;;;12.13;;
21848;SDS011;11089;49.852;19.700;2022-12-07T18:31:30;27.30;;;11.23;;
21848;SDS011;11089;49.852;19.700;2022-12-07T18:34:31;28.63;;;11.35;;
21848;SDS011;11089;49.852;19.700;2022-12-07T18:37:32;23.10;;;10.30;;
21848;SDS011;11089;49.852;19.700;2022-12-07T18:40:36;23.95;;;11.20;;
21848;SDS011;11089;49.852;19.700;2022-12-07T18:43:38;23.13;;;11.27;;
21848;SDS011;11089;49.852;19.700;2022-12-07T18:46:39;24.00;;;10.82;;
21848;SDS011;11089;49.852;19.700;2022-12-07T18:49:41;27.33;;;12.48;;
21848;SDS011;11089;49.852;19.700;2022-12-07T18:52:42;27.95;;;11.73;;
21848;SDS011;11089;49.852;19.700;2022-12-07T18:55:43;25.38;;;12.05;;
21848;SDS011;11089;49.852;19.700;2022-12-07T18:58:48;21.38;;;9.98;;
21848;SDS011;11089;49.852;19.700;2022-12-07T19:02:05;19.65;;;9.25;;
21848;SDS011;11089;49.852;19.700;2022-12-07T19:05:06;21.85;;;10.13;;
21848;SDS011;11089;49.852;19.700;2022-12-07T19:08:07;21.75;;;9.57;;
21848;SDS011;11089;49.852;19.700;2022-12-07T19:11:16;17.17;;;8.68;;
21848;SDS011;11089;49.852;19.700;2022-12-07T19:14:32;20.80;;;8.63;;
21848;SDS011;11089;49.852;19.700;2022-12-07T19:17:35;22.95;;;10.20;;
21848;SDS011;11089;49.852;19.700;2022-12-07T19:20:36;19.98;;;9.27;;
21848;SDS011;11089;49.852;19.700;2022-12-07T19:23:37;21.75;;;9.60;;
21848;SDS011;11089;49.852;19.700;2022-12-07T19:26:38;28.50;;;11.20;;
21848;SDS011;11089;49.852;19.700;2022-12-07T19:29:39;33.75;;;14.80;;
21848;SDS011;11089;49.852;19.700;2022-12-07T19:32:41;42.78;;;17.88;;
21848;SDS011;11089;49.852;19.700;2022-12-07T19:35:42;33.90;;;13.00;;
21848;SDS011;11089;49.852;19.700;2022-12-07T19:38:43;31.63;;;12.82;;
21848;SDS011;11089;49.852;19.700;2022-12-07T19:41:44;25.60;;;9.93;;
21848;SDS011;11089;49.852;19.700;2022-12-07T19:44:45;20.10;;;9.35;;
21848;SDS011;11089;49.852;19.700;2022-12-07T19:47:46;14.93;;;7.25;;
21848;SDS011;11089;49.852;19.700;2022-12-07T19:50:47;12.23;;;6.72;;
21848;SDS011;11089;49.852;19.700;2022-12-07T19:53:48;13.60;;;6.53;;
21848;SDS011;11089;49.852;19.700;2022-12-07T19:56:49;19.05;;;8.02;;